Time;durP1;ratioP1;P1;durP2;ratioP2;P2;SDS_P1;SDS_P2;PMS_P1;PMS_P2;Temp;Humidity;BMP_temperature;BMP_pressure;BME280_temperature;BME280_humidity;BME280_pressure;Samples;Min_cycle;Max_cycle;Signal;HPM_P1;HPM_P2
2023/04/08 00:02:24;;;;;;;;;10.00;8.33;;;;;10.04;62.18;101788.03;5056340;28;45357;-73
2023/04/08 00:04:50;;;;;;;;;8.33;7.67;;;;;10.19;61.85;101807.25;5038737;28;45337;-72
2023/04/08 00:07:15;;;;;;;;;7.67;7.67;;;;;10.27;61.82;101796.94;5055988;28;51308;-72
2023/04/08 00:09:40;;;;;;;;;7.00;7.00;;;;;10.24;62.18;101810.47;5038274;28;45266;-72
2023/04/08 00:12:06;;;;;;;;;11.33;9.33;;;;;10.11;62.39;101791.91;5038501;28;45514;-71
2023/04/08 00:14:31;;;;;;;;;10.33;9.67;;;;;10.10;62.71;101803.50;5056895;28;45257;-73
2023/04/08 00:16:57;;;;;;;;;8.67;8.67;;;;;10.01;62.81;101807.69;5056023;28;52934;-72
2023/04/08 00:19:22;;;;;;;;;9.00;8.67;;;;;9.88;63.27;101777.69;5036616;28;53517;-71
2023/04/08 00:21:47;;;;;;;;;11.00;9.00;;;;;9.89;62.93;101771.41;5058365;28;45540;-73
2023/04/08 00:24:13;;;;;;;;;12.00;9.67;;;;;9.58;62.83;101722.38;5059963;28;45387;-73
2023/04/08 00:26:38;;;;;;;;;9.67;8.33;;;;;9.86;63.26;101800.03;5059227;28;45570;-72
2023/04/08 00:29:04;;;;;;;;;8.00;7.00;;;;;9.80;63.17;101797.78;5042145;28;45444;-71
2023/04/08 00:31:29;;;;;;;;;9.33;9.33;;;;;9.06;62.78;101640.47;5042494;28;45340;-71
2023/04/08 00:33:55;;;;;;;;;13.33;10.33;;;;;9.70;62.83;101748.03;5042254;28;45415;-72
2023/04/08 00:36:21;;;;;;;;;9.33;8.00;;;;;9.94;62.81;101800.28;5041245;28;46415;-73
2023/04/08 00:38:46;;;;;;;;;10.67;10.67;;;;;9.95;62.26;101804.63;5058286;28;45641;-71
2023/04/08 00:41:12;;;;;;;;;10.00;8.33;;;;;9.96;62.68;101807.19;5059401;28;45933;-72
2023/04/08 00:43:37;;;;;;;;;9.33;6.00;;;;;8.97;62.39;101651.72;5059487;28;45427;-74
2023/04/08 00:46:04;;;;;;;;;8.33;8.33;;;;;9.11;62.34;101672.81;5059156;28;45447;-71
2023/04/08 00:48:30;;;;;;;;;11.00;8.33;;;;;9.63;62.77;101775.16;5040606;28;45536;-72
2023/04/08 00:50:56;;;;;;;;;11.67;7.67;;;;;9.59;62.79;101760.38;5059133;28;45302;-73
2023/04/08 00:53:21;;;;;;;;;9.67;9.33;;;;;9.68;62.96;101770.34;5054643;28;45443;-73
2023/04/08 00:55:46;;;;;;;;;9.33;8.00;;;;;9.83;62.95;101817.03;5039210;28;46421;-73
2023/04/08 00:58:13;;;;;;;;;10.00;9.00;;;;;9.73;63.36;101811.53;5037808;28;45297;-73
2023/04/08 01:00:42;;;;;;;;;10.67;10.00;;;;;9.56;63.76;101787.16;5037861;28;45410;-72
2023/04/08 01:03:15;;;;;;;;;9.00;9.00;;;;;9.73;63.48;101826.63;5037867;28;45589;-73
2023/04/08 01:06:05;;;;;;;;;10.00;9.00;;;;;9.74;63.45;101823.00;5038813;28;46829;-72
2023/04/08 01:08:34;;;;;;;;;9.00;9.00;;;;;9.64;63.09;101790.97;5038998;28;45410;-72
2023/04/08 01:11:02;;;;;;;;;8.00;7.00;;;;;9.66;62.83;101789.06;5037213;28;45424;-71
2023/04/08 01:13:32;;;;;;;;;9.33;7.33;;;;;9.69;62.42;101798.59;5039331;28;45574;-73
2023/04/08 01:15:58;;;;;;;;;10.00;8.33;;;;;9.71;62.67;101818.75;5038798;28;46449;-70
2023/04/08 01:18:25;;;;;;;;;9.67;6.67;;;;;9.40;62.27;101756.44;5037919;28;45446;-72
2023/04/08 01:20:53;;;;;;;;;6.00;6.00;;;;;9.56;62.50;101790.66;5033722;28;45427;-75
2023/04/08 01:23:36;;;;;;;;;5.67;2.33;;;;;9.79;61.74;101815.53;5019236;28;45269;-73
2023/04/08 01:26:01;;;;;;;;;10.00;8.33;;;;;9.50;61.99;101782.31;5018162;28;47738;-72
2023/04/08 01:28:29;;;;;;;;;16.00;9.67;;;;;9.57;62.16;101815.41;5021272;28;45463;-73
2023/04/08 01:30:58;;;;;;;;;8.33;6.00;;;;;8.56;62.76;101657.34;5018454;28;45314;-71
2023/04/08 01:33:26;;;;;;;;;8.67;8.33;;;;;9.35;62.28;101784.25;5019403;28;45496;-72
2023/04/08 01:35:54;;;;;;;;;8.67;6.67;;;;;9.52;62.68;101807.78;5019755;28;45571;-72
2023/04/08 01:38:22;;;;;;;;;7.33;6.00;;;;;9.19;62.45;101757.97;5019121;28;45238;-71
2023/04/08 01:40:48;;;;;;;;;7.00;7.00;;;;;9.55;62.53;101812.03;5019417;28;45270;-72
2023/04/08 01:43:16;;;;;;;;;9.67;6.67;;;;;9.40;63.15;101814.81;5019447;28;45454;-70
2023/04/08 01:45:44;;;;;;;;;7.00;7.00;;;;;9.39;63.08;101813.13;5017134;28;47736;-73
2023/04/08 01:48:12;;;;;;;;;8.33;8.33;;;;;8.42;63.23;101661.00;5016976;28;45512;-72
2023/04/08 01:50:40;;;;;;;;;8.67;8.67;;;;;9.26;63.23;101792.91;5018478;28;45391;-71
2023/04/08 01:53:08;;;;;;;;;9.00;9.00;;;;;9.43;63.24;101806.66;5030658;28;45332;-74
2023/04/08 01:55:34;;;;;;;;;9.33;8.00;;;;;9.41;62.86;101808.59;5037957;28;46584;-72
2023/04/08 01:58:01;;;;;;;;;9.00;7.67;;;;;9.44;62.79;101808.34;5038264;28;45335;-71
2023/04/08 02:00:29;;;;;;;;;7.67;7.00;;;;;9.44;62.92;101804.84;5037037;28;45468;-70
2023/04/08 02:02:56;;;;;;;;;7.67;6.33;;;;;8.76;62.83;101708.00;5038214;28;45532;-72
2023/04/08 02:05:21;;;;;;;;;7.67;7.67;;;;;6.56;63.35;101361.59;5020028;28;47191;-72
2023/04/08 02:07:47;;;;;;;;;6.67;6.67;;;;;8.13;63.81;101634.69;5037779;28;45306;-73
2023/04/08 02:10:13;;;;;;;;;6.00;6.00;;;;;9.18;63.93;101809.34;5036469;28;45404;-71
2023/04/08 02:12:39;;;;;;;;;8.00;7.00;;;;;8.77;64.08;101768.03;5038262;28;45436;-71
2023/04/08 02:15:05;;;;;;;;;7.67;7.67;;;;;9.13;63.81;101796.41;5020199;28;45673;-72
2023/04/08 02:17:36;;;;;;;;;7.00;7.00;;;;;9.15;63.61;101809.56;5019985;28;45553;-72
2023/04/08 02:20:05;;;;;;;;;10.00;8.00;;;;;9.14;63.93;101802.56;5044625;28;45372;-73
2023/04/08 02:22:38;;;;;;;;;7.00;5.00;;;;;8.11;64.08;101655.13;5040661;28;45558;-72
2023/04/08 02:25:10;;;;;;;;;11.67;10.67;;;;;9.05;64.20;101806.72;5038356;28;45241;-73
2023/04/08 02:27:38;;;;;;;;;11.67;10.00;;;;;8.76;64.05;101773.44;5039367;28;45286;-73
2023/04/08 02:30:06;;;;;;;;;10.00;10.00;;;;;8.64;64.32;101753.09;5038441;28;45464;-73
2023/04/08 02:32:35;;;;;;;;;7.00;5.67;;;;;8.81;64.33;101785.44;5037648;28;45619;-71
2023/04/08 02:35:02;;;;;;;;;10.00;9.00;;;;;8.81;64.30;101789.91;5037395;28;46335;-72
2023/04/08 02:37:29;;;;;;;;;9.00;9.00;;;;;8.63;64.43;101772.63;5037552;28;45319;-71
2023/04/08 02:39:54;;;;;;;;;8.00;6.67;;;;;8.95;64.47;101803.03;5028730;28;45589;-71
2023/04/08 02:42:20;;;;;;;;;8.67;8.00;;;;;8.04;64.47;101683.00;5042982;28;45455;-71
2023/04/08 02:44:45;;;;;;;;;7.67;7.67;;;;;7.94;64.38;101645.69;5034499;28;47497;-74
2023/04/08 02:47:10;;;;;;;;;8.33;8.00;;;;;8.54;64.34;101740.47;5051928;28;45321;-71
2023/04/08 02:49:36;;;;;;;;;8.67;6.33;;;;;8.99;63.95;101819.56;5060159;28;46508;-71
2023/04/08 02:52:01;;;;;;;;;11.33;9.33;;;;;8.95;63.87;101823.38;5037535;28;45550;-73
2023/04/08 02:54:26;;;;;;;;;13.33;10.33;;;;;8.76;64.14;101792.84;5036687;28;47326;-76
2023/04/08 02:56:52;;;;;;;;;6.33;6.33;;;;;8.49;64.87;101762.97;5036447;28;45437;-72
2023/04/08 02:59:17;;;;;;;;;8.33;8.33;;;;;8.74;64.95;101808.00;5035997;28;45338;-72
2023/04/08 03:01:43;;;;;;;;;13.33;10.67;;;;;8.47;64.81;101770.16;5020337;28;45492;-72
2023/04/08 03:04:08;;;;;;;;;13.67;10.00;;;;;8.13;65.22;101735.34;5041221;28;45640;-73
2023/04/08 03:06:33;;;;;;;;;9.00;9.00;;;;;8.65;65.38;101811.31;5037300;28;45531;-72
2023/04/08 03:08:59;;;;;;;;;11.67;8.00;;;;;8.37;65.00;101772.59;5057520;28;45277;-72
2023/04/08 03:11:25;;;;;;;;;13.00;13.00;;;;;8.37;65.61;101772.59;5057459;28;45474;-72
2023/04/08 03:13:50;;;;;;;;;14.00;11.33;;;;;8.53;65.72;101828.88;5056953;28;46343;-71
2023/04/08 03:16:15;;;;;;;;;15.00;12.33;;;;;8.26;66.05;101776.91;5057015;28;45269;-73
2023/04/08 03:18:40;;;;;;;;;16.00;14.33;;;;;7.40;66.22;101644.09;5057204;28;45417;-71
2023/04/08 03:21:06;;;;;;;;;13.67;13.67;;;;;8.27;66.65;101786.53;5057332;28;45305;-72
2023/04/08 03:23:31;;;;;;;;;16.00;15.00;;;;;7.96;66.81;101755.94;5058163;28;45495;-71
2023/04/08 03:25:57;;;;;;;;;10.00;8.33;;;;;8.17;66.12;101779.19;5055973;28;45408;-71
2023/04/08 03:28:22;;;;;;;;;14.00;12.67;;;;;8.26;66.28;101776.91;5056360;28;45304;-72
2023/04/08 03:30:48;;;;;;;;;15.33;12.00;;;;;8.36;66.54;101820.38;5038019;28;45543;-72
2023/04/08 03:33:13;;;;;;;;;13.33;13.00;;;;;8.42;66.67;101814.69;5056843;28;46183;-71
2023/04/08 03:35:39;;;;;;;;;18.33;14.33;;;;;8.41;66.06;101808.53;5057766;28;45191;-71
2023/04/08 03:38:04;;;;;;;;;15.00;15.00;;;;;8.24;66.93;101795.56;5053241;28;45522;-70
2023/04/08 03:40:30;;;;;;;;;15.67;13.33;;;;;8.00;65.90;101742.41;5037578;28;45442;-72
2023/04/08 03:42:55;;;;;;;;;14.67;13.33;;;;;8.01;65.58;101736.19;5018737;28;47818;-73
2023/04/08 03:45:20;;;;;;;;;15.33;15.00;;;;;8.53;65.69;101820.09;5038017;28;45444;-72
2023/04/08 03:47:46;;;;;;;;;15.33;14.00;;;;;8.41;65.40;101802.38;5037208;28;45482;-72
2023/04/08 03:50:11;;;;;;;;;16.00;12.67;;;;;7.63;65.70;101675.22;5044127;28;53855;-72
2023/04/08 03:52:37;;;;;;;;;13.67;12.33;;;;;8.27;65.32;101773.28;5056201;28;46533;-73
2023/04/08 03:55:02;;;;;;;;;14.33;12.33;;;;;8.55;65.07;101828.78;5057425;28;45524;-70
2023/04/08 03:57:27;;;;;;;;;5.67;5.67;;;;;8.35;65.32;101806.28;5060641;28;45330;-71
2023/04/08 03:59:53;;;;;;;;;13.00;12.67;;;;;8.38;65.66;101823.78;5060130;28;45456;-71
2023/04/08 04:02:18;;;;;;;;;13.00;11.33;;;;;8.16;65.76;101803.16;5058217;28;47922;-71
2023/04/08 04:04:44;;;;;;;;;15.00;11.67;;;;;8.06;65.92;101787.03;5060123;28;45493;-72
2023/04/08 04:07:09;;;;;;;;;13.33;11.00;;;;;8.13;65.59;101771.56;5060534;28;45427;-74
2023/04/08 04:09:34;;;;;;;;;9.00;9.00;;;;;8.27;65.42;101781.25;5060036;28;45384;-72
2023/04/08 04:12:00;;;;;;;;;15.00;13.00;;;;;8.08;64.80;101757.78;5060543;28;46084;-73
2023/04/08 04:14:25;;;;;;;;;11.33;11.33;;;;;8.38;64.91;101814.03;5034674;28;45527;-73
2023/04/08 04:16:51;;;;;;;;;13.67;12.00;;;;;8.44;65.42;101829.53;5041066;28;45456;-71
2023/04/08 04:19:17;;;;;;;;;14.00;13.00;;;;;8.43;65.15;101827.00;5040152;28;45352;-72
2023/04/08 04:21:42;;;;;;;;;13.00;13.00;;;;;7.44;65.45;101686.16;5022501;28;45329;-72
2023/04/08 04:24:08;;;;;;;;;18.67;13.67;;;;;7.94;65.60;101756.91;5040595;28;45460;-72
2023/04/08 04:26:33;;;;;;;;;12.67;11.33;;;;;8.30;65.23;101826.06;5040516;28;45509;-72
2023/04/08 04:28:59;;;;;;;;;16.33;14.00;;;;;8.28;65.73;101827.97;5059772;28;45498;-71
2023/04/08 04:31:27;;;;;;;;;14.00;11.33;;;;;8.22;65.74;101824.78;5058471;28;47010;-72
2023/04/08 04:33:53;;;;;;;;;14.33;10.67;;;;;8.22;65.76;101835.38;5054081;28;45251;-72
2023/04/08 04:36:18;;;;;;;;;13.00;11.33;;;;;8.33;65.61;101837.31;5039445;28;45254;-72
2023/04/08 04:38:45;;;;;;;;;13.67;13.67;;;;;8.21;65.46;101817.81;5042183;28;45425;-72
2023/04/08 04:41:10;;;;;;;;;15.00;14.00;;;;;8.19;65.77;101840.88;5060063;28;45935;-72
2023/04/08 04:43:36;;;;;;;;;14.00;13.33;;;;;7.94;65.74;101809.88;5059371;28;45547;-73
2023/04/08 04:46:05;;;;;;;;;14.67;13.00;;;;;7.75;66.71;101813.81;5059689;28;45601;-73
2023/04/08 04:48:31;;;;;;;;;15.67;13.67;;;;;7.97;66.38;101845.03;5041802;28;45175;-72
2023/04/08 04:50:58;;;;;;;;;15.00;13.33;;;;;8.04;66.37;101847.19;5059159;28;45606;-71
2023/04/08 04:53:24;;;;;;;;;12.33;12.33;;;;;7.99;65.71;101828.09;5059931;28;45273;-72
2023/04/08 04:55:50;;;;;;;;;15.33;12.33;;;;;8.16;65.55;101861.41;5050696;28;45308;-72
2023/04/08 04:58:15;;;;;;;;;13.00;12.00;;;;;7.87;65.56;101805.09;5039425;28;45421;-72
2023/04/08 05:00:40;;;;;;;;;10.67;10.67;;;;;8.28;65.11;101865.91;5040136;28;45975;-73
2023/04/08 05:03:06;;;;;;;;;8.33;7.33;;;;;7.59;65.54;101755.72;5040364;28;46416;-72
2023/04/08 05:05:31;;;;;;;;;14.67;14.00;;;;;8.19;65.51;101867.34;5059642;28;45329;-73
2023/04/08 05:07:57;;;;;;;;;16.67;12.67;;;;;8.12;65.44;101866.06;5041774;28;45286;-72
2023/04/08 05:10:22;;;;;;;;;14.33;12.67;;;;;8.13;65.58;101867.78;5040878;28;46252;-72
2023/04/08 05:12:47;;;;;;;;;14.00;14.00;;;;;8.10;65.53;101878.56;5059317;28;45150;-73
2023/04/08 05:15:13;;;;;;;;;19.00;18.00;;;;;7.96;66.04;101870.66;5057728;28;45549;-72
2023/04/08 05:17:38;;;;;;;;;15.33;15.00;;;;;7.88;65.83;101862.38;5059152;28;45591;-72
2023/04/08 05:20:04;;;;;;;;;17.33;14.33;;;;;7.93;66.39;101879.66;5058737;28;46283;-73
2023/04/08 05:22:29;;;;;;;;;16.67;14.33;;;;;7.92;66.14;101870.03;5020538;28;45831;-72
2023/04/08 05:24:55;;;;;;;;;16.67;15.00;;;;;7.90;66.33;101876.38;5038426;28;54639;-73
2023/04/08 05:27:20;;;;;;;;;11.33;11.33;;;;;7.73;66.78;101882.75;5038757;28;45269;-72
2023/04/08 05:29:46;;;;;;;;;11.67;11.33;;;;;7.70;66.50;101859.13;5053514;28;45723;-73
2023/04/08 05:32:11;;;;;;;;;16.00;15.33;;;;;7.84;66.01;101892.66;5058740;28;45230;-71
2023/04/08 05:34:37;;;;;;;;;13.67;13.67;;;;;7.85;66.67;101873.19;5058412;28;45312;-73
2023/04/08 05:37:02;;;;;;;;;17.00;17.00;;;;;7.99;66.17;101902.25;5058278;28;45258;-71
2023/04/08 05:39:27;;;;;;;;;17.67;14.00;;;;;8.07;66.09;101894.66;5052996;28;46704;-71
2023/04/08 05:41:53;;;;;;;;;17.67;15.67;;;;;8.14;65.31;101901.25;5054001;28;49835;-73
2023/04/08 05:44:19;;;;;;;;;18.00;14.00;;;;;8.17;65.46;101906.34;5058374;28;45523;-73
2023/04/08 05:46:44;;;;;;;;;15.00;11.67;;;;;8.09;65.38;101866.28;5058703;28;45445;-71
2023/04/08 05:49:10;;;;;;;;;22.67;20.33;;;;;8.18;65.13;101900.09;5052997;28;46530;-73
2023/04/08 05:51:36;;;;;;;;;16.33;15.00;;;;;8.25;65.25;101903.22;5026695;28;45461;-72
2023/04/08 05:54:01;;;;;;;;;16.67;16.00;;;;;8.11;64.63;101890.88;5054294;28;45471;-72
2023/04/08 05:56:27;;;;;;;;;18.00;17.33;;;;;8.19;64.99;101893.84;5055784;28;45518;-72
2023/04/08 05:58:52;;;;;;;;;18.33;16.00;;;;;8.28;64.81;101907.47;5039905;28;48208;-72
2023/04/08 06:01:19;;;;;;;;;18.00;16.67;;;;;8.22;64.58;101921.97;5057973;28;45271;-72
2023/04/08 06:03:44;;;;;;;;;21.00;17.00;;;;;8.16;64.63;101919.69;5039810;28;45275;-72
2023/04/08 06:06:11;;;;;;;;;24.33;18.67;;;;;7.23;64.97;101774.84;5056889;28;45463;-71
2023/04/08 06:08:36;;;;;;;;;14.67;13.33;;;;;8.13;64.59;101928.69;5057232;28;46710;-73
2023/04/08 06:11:04;;;;;;;;;21.33;20.00;;;;;8.15;65.33;101923.28;5058320;28;45534;-72
2023/04/08 06:13:29;;;;;;;;;17.00;17.00;;;;;8.04;64.93;101900.16;5057922;28;45286;-73
2023/04/08 06:15:55;;;;;;;;;19.00;15.33;;;;;8.24;64.46;101907.66;5058106;28;45468;-73
2023/04/08 06:18:20;;;;;;;;;26.00;20.67;;;;;8.07;64.22;101884.06;5058213;28;45525;-73
2023/04/08 06:20:45;;;;;;;;;24.00;19.33;;;;;7.80;64.45;101854.91;5057437;28;50292;-71
2023/04/08 06:23:11;;;;;;;;;21.33;20.00;;;;;8.37;64.11;101934.22;5038010;28;45406;-72
2023/04/08 06:25:37;;;;;;;;;25.67;21.00;;;;;8.68;63.10;101911.84;5040531;28;45480;-72
2023/04/08 06:28:02;;;;;;;;;25.00;22.00;;;;;9.33;61.58;101925.03;5037352;28;46408;-70
2023/04/08 06:30:27;;;;;;;;;22.67;21.00;;;;;9.66;59.18;101876.69;5037436;28;45298;-71
2023/04/08 06:32:53;;;;;;;;;22.67;18.67;;;;;9.66;58.05;101809.44;5037102;28;51308;-71
2023/04/08 06:35:18;;;;;;;;;23.00;22.33;;;;;10.69;56.82;101928.44;5037225;28;45432;-71
2023/04/08 06:37:44;;;;;;;;;21.67;21.67;;;;;11.03;55.86;101942.69;5054649;28;46404;-74
2023/04/08 06:40:09;;;;;;;;;24.33;23.67;;;;;10.93;55.48;101859.22;5057287;28;45245;-71
2023/04/08 06:42:37;;;;;;;;;27.67;23.67;;;;;11.57;53.32;101902.06;5057212;28;45304;-72
2023/04/08 06:45:03;;;;;;;;;25.00;23.00;;;;;12.13;52.10;101934.00;5057303;28;45497;-72
2023/04/08 06:47:29;;;;;;;;;43.00;34.00;;;;;12.34;51.96;101900.22;5057061;28;45984;-72
2023/04/08 06:49:54;;;;;;;;;31.00;25.33;;;;;12.80;49.85;101918.56;5057148;28;45463;-72
2023/04/08 06:52:19;;;;;;;;;22.00;19.33;;;;;13.33;49.39;101941.69;5038738;28;45567;-72
2023/04/08 06:54:45;;;;;;;;;28.67;26.00;;;;;13.85;48.23;101961.19;5057339;28;45410;-73
2023/04/08 06:57:10;;;;;;;;;26.00;25.00;;;;;14.21;46.85;101957.88;5021734;28;48485;-73
2023/04/08 06:59:36;;;;;;;;;24.33;24.33;;;;;14.36;45.59;101936.09;5040430;28;45467;-73
2023/04/08 07:02:01;;;;;;;;;23.00;23.00;;;;;14.93;44.72;101969.22;5038815;28;45882;-71
2023/04/08 07:04:26;;;;;;;;;25.00;21.67;;;;;15.39;44.10;101968.44;5055834;28;45416;-73
2023/04/08 07:06:52;;;;;;;;;22.00;16.00;;;;;15.01;43.45;101816.69;5075566;28;46670;-74
2023/04/08 07:09:17;;;;;;;;;18.00;17.00;;;;;16.35;41.50;101959.94;5029701;28;46123;-73
2023/04/08 07:11:43;;;;;;;;;26.67;23.33;;;;;16.72;40.50;101965.19;5037130;28;45436;-72
2023/04/08 07:14:09;;;;;;;;;23.00;22.00;;;;;16.57;39.75;101896.91;5044613;28;45277;-72
2023/04/08 07:16:34;;;;;;;;;22.33;22.33;;;;;16.63;39.31;101880.19;5046583;28;45545;-71
2023/04/08 07:18:59;;;;;;;;;22.00;21.00;;;;;17.19;39.11;101975.63;5056333;28;45173;-73
2023/04/08 07:21:25;;;;;;;;;22.67;21.33;;;;;17.26;38.32;101933.72;5057753;28;45447;-74
2023/04/08 07:23:50;;;;;;;;;23.00;21.00;;;;;17.63;37.82;101944.16;5057823;28;45559;-74
2023/04/08 07:26:16;;;;;;;;;27.67;24.00;;;;;18.01;36.83;101917.75;5057494;28;46489;-73
2023/04/08 07:28:41;;;;;;;;;18.33;13.67;;;;;18.52;36.46;101959.75;5052032;28;45269;-71
2023/04/08 07:31:15;;;;;;;;;24.00;20.33;;;;;18.27;36.66;101968.81;5056272;28;45265;-71
2023/04/08 07:33:41;;;;;;;;;19.00;17.00;;;;;18.48;36.48;101960.28;5052841;28;45444;-72
2023/04/08 07:36:08;;;;;;;;;21.00;18.33;;;;;18.26;35.51;101888.22;5037544;28;47328;-73
2023/04/08 07:38:34;;;;;;;;;24.33;21.33;;;;;17.98;35.60;101849.97;5055936;28;45225;-74
2023/04/08 07:40:59;;;;;;;;;21.00;20.67;;;;;18.22;35.81;101925.41;5024121;28;45538;-73
2023/04/08 07:43:25;;;;;;;;;20.67;19.00;;;;;18.19;36.03;101933.78;5047876;28;45255;-73
2023/04/08 07:45:50;;;;;;;;;22.00;20.00;;;;;18.54;35.90;101960.44;5051083;28;45688;-74
2023/04/08 07:48:16;;;;;;;;;22.00;19.00;;;;;18.46;35.83;101924.59;5057964;28;45577;-73
2023/04/08 07:50:41;;;;;;;;;21.33;20.00;;;;;18.79;35.14;101952.41;5070769;28;45296;-74
2023/04/08 07:53:07;;;;;;;;;20.67;18.00;;;;;18.73;35.49;101963.84;5059523;28;45522;-74
2023/04/08 07:55:33;;;;;;;;;18.33;17.00;;;;;19.29;34.87;101954.03;5061544;28;46970;-73
2023/04/08 07:58:00;;;;;;;;;21.00;18.67;;;;;19.98;33.95;101992.97;5047288;28;45427;-74
2023/04/08 08:00:25;;;;;;;;;22.00;20.33;;;;;20.68;32.55;101974.03;5057387;28;45416;-78
2023/04/08 08:02:51;;;;;;;;;38.67;33.00;;;;;20.92;32.16;101960.31;5028657;28;45511;-73
2023/04/08 08:05:16;;;;;;;;;19.67;17.33;;;;;20.83;31.75;101939.78;5054849;28;45471;-74
2023/04/08 08:07:42;;;;;;;;;24.33;20.67;;;;;20.43;32.37;101969.81;5054298;28;45435;-75
2023/04/08 08:10:08;;;;;;;;;22.33;18.67;;;;;20.98;32.50;101998.44;5056449;28;45290;-75
2023/04/08 08:12:33;;;;;;;;;21.67;19.67;;;;;20.27;31.39;101895.97;5057511;28;45194;-74
2023/04/08 08:14:59;;;;;;;;;24.33;22.67;;;;;20.22;32.28;101903.75;5038918;28;47793;-76
2023/04/08 08:17:25;;;;;;;;;14.33;14.33;;;;;20.28;32.16;101924.63;5051613;28;45543;-76
2023/04/08 08:19:50;;;;;;;;;21.00;20.00;;;;;19.94;33.12;101959.25;5057590;28;45567;-81
2023/04/08 08:22:15;;;;;;;;;21.67;19.33;;;;;19.80;33.34;101904.16;5037861;28;45618;-75
2023/04/08 08:24:41;;;;;;;;;19.00;19.00;;;;;20.55;32.29;101990.00;5055719;28;52010;-78
2023/04/08 08:27:09;;;;;;;;;11.00;7.67;;;;;20.19;32.44;101928.41;5038050;28;45506;-76
2023/04/08 08:29:35;;;;;;;;;17.00;15.00;;;;;20.31;33.13;101996.34;5056387;28;45416;-74
2023/04/08 08:32:02;;;;;;;;;21.67;18.33;;;;;20.28;32.12;101905.75;5038035;28;45365;-75
2023/04/08 08:34:28;;;;;;;;;18.00;18.00;;;;;19.79;32.50;101917.81;5054847;28;45275;-75
2023/04/08 08:36:53;;;;;;;;;20.33;16.67;;;;;20.19;32.75;102008.56;5071588;28;45568;-75
2023/04/08 08:39:18;;;;;;;;;16.33;12.67;;;;;19.18;32.93;101847.41;5067472;28;45293;-74
2023/04/08 08:41:44;;;;;;;;;13.67;13.67;;;;;20.30;32.44;101994.69;5020409;28;45662;-75
2023/04/08 08:44:11;;;;;;;;;21.33;21.00;;;;;20.08;32.47;101988.22;5050759;28;46463;-75
2023/04/08 08:46:46;;;;;;;;;13.67;11.67;;;;;18.72;33.39;101838.25;5041068;28;45524;-73
2023/04/08 08:49:11;;;;;;;;;18.67;16.00;;;;;19.47;33.63;101972.72;5035996;28;45516;-74
2023/04/08 08:51:38;;;;;;;;;19.33;15.67;;;;;20.40;32.74;101999.84;5045151;28;45279;-75
2023/04/08 08:54:04;;;;;;;;;14.33;14.33;;;;;20.45;32.42;101984.84;5057999;28;46135;-72
2023/04/08 08:56:29;;;;;;;;;10.67;10.67;;;;;20.26;32.67;101960.94;5058387;28;45231;-74
2023/04/08 08:58:55;;;;;;;;;13.67;11.67;;;;;20.18;32.46;101923.19;5059585;28;45214;-74
2023/04/08 09:01:41;;;;;;;;;16.00;16.00;;;;;20.94;31.63;101922.28;5040027;28;45235;-76
2023/04/08 09:04:08;;;;;;;;;20.00;17.33;;;;;21.37;30.40;101895.50;5057757;28;46571;-73
2023/04/08 09:06:33;;;;;;;;;16.67;15.67;;;;;21.84;30.05;101970.88;5046964;28;45424;-74
2023/04/08 09:08:59;;;;;;;;;21.67;15.67;;;;;21.55;30.61;102010.44;5040078;28;45356;-75
2023/04/08 09:11:25;;;;;;;;;15.00;14.33;;;;;20.56;31.39;101930.38;5051247;28;45420;-76
2023/04/08 09:13:50;;;;;;;;;14.00;13.33;;;;;19.90;31.75;101860.75;5049223;28;45779;-75
2023/04/08 09:16:18;;;;;;;;;20.33;19.00;;;;;20.83;31.27;101928.97;5038582;28;45403;-73
2023/04/08 09:18:45;;;;;;;;;21.67;18.00;;;;;22.14;30.21;101980.66;5038680;28;45503;-73
2023/04/08 09:21:13;;;;;;;;;21.00;19.33;;;;;21.71;30.16;101949.03;5038922;28;45357;-76
2023/04/08 09:24:11;;;;;;;;;17.33;14.33;;;;;22.53;29.31;101903.53;5039329;28;45753;-75
2023/04/08 09:26:36;;;;;;;;;20.67;20.67;;;;;23.56;28.22;102008.72;5026987;28;46437;-74
2023/04/08 09:29:11;;;;;;;;;17.67;17.00;;;;;24.66;26.68;101983.31;5039535;28;45231;-75
2023/04/08 09:31:41;;;;;;;;;16.00;15.00;;;;;25.76;25.61;101958.09;5038855;28;45463;-73
2023/04/08 09:34:16;;;;;;;;;14.67;13.67;;;;;27.18;23.28;101955.97;5020386;28;46555;-73
2023/04/08 09:36:41;;;;;;;;;19.67;15.67;;;;;28.29;22.83;101987.75;5038153;28;45284;-74
2023/04/08 09:39:07;;;;;;;;;8.67;8.00;;;;;28.35;21.73;101877.41;5038376;28;45290;-76
2023/04/08 09:41:34;;;;;;;;;19.33;17.33;;;;;29.63;20.51;101988.94;5039070;28;45246;-75
2023/04/08 09:44:03;;;;;;;;;23.00;20.33;;;;;29.10;20.94;101997.28;5019778;28;47587;-75
2023/04/08 09:46:32;;;;;;;;;21.33;20.00;;;;;29.80;20.59;101992.59;5036932;28;45430;-74
2023/04/08 09:49:12;;;;;;;;;13.33;12.33;;;;;30.18;19.49;101991.19;5037944;28;45268;-75
2023/04/08 09:51:59;;;;;;;;;16.00;13.00;;;;;29.41;19.67;101991.44;5037996;28;45413;-73
2023/04/08 09:54:34;;;;;;;;;14.00;12.00;;;;;29.28;20.48;101978.81;5037833;28;46931;-74
2023/04/08 09:57:08;;;;;;;;;16.00;13.00;;;;;28.57;20.55;102000.81;5037952;28;45294;-73
2023/04/08 09:59:37;;;;;;;;;17.00;15.33;;;;;27.79;21.16;101998.84;5038707;28;45405;-74
2023/04/08 10:02:10;;;;;;;;;13.00;13.00;;;;;26.96;22.22;101994.56;5038593;28;45741;-75
2023/04/08 10:04:39;;;;;;;;;14.00;13.33;;;;;27.16;22.18;101939.00;5036070;28;47250;-74
2023/04/08 10:07:07;;;;;;;;;14.00;12.67;;;;;26.79;22.37;102007.09;5057800;28;45317;-74
2023/04/08 10:09:33;;;;;;;;;13.33;13.00;;;;;26.43;23.61;101993.25;5058346;28;45462;-74
2023/04/08 10:12:00;;;;;;;;;13.33;12.00;;;;;26.08;23.48;101964.50;5058035;28;45703;-74
2023/04/08 10:14:30;;;;;;;;;18.33;18.33;;;;;24.64;25.58;102004.44;5039926;28;45509;-76
2023/04/08 10:17:24;;;;;;;;;18.00;13.67;;;;;23.73;26.70;102011.97;5038970;28;45379;-74
2023/04/08 10:19:49;;;;;;;;;12.00;11.33;;;;;23.01;28.01;102012.22;5058287;28;45463;-75
2023/04/08 10:22:46;;;;;;;;;25.67;19.33;;;;;21.79;29.41;102011.19;5058317;28;45462;-73
2023/04/08 10:25:17;;;;;;;;;35.00;30.67;;;;;21.58;30.08;102011.94;5015431;28;45574;-75
2023/04/08 10:27:44;;;;;;;;;23.00;19.33;;;;;21.30;30.34;101989.25;5037606;28;45443;-74
2023/04/08 10:30:27;;;;;;;;;13.33;12.33;;;;;20.70;31.46;101999.00;5037579;28;45279;-74
2023/04/08 10:32:58;;;;;;;;;21.67;19.00;;;;;20.23;32.00;101997.25;5037832;28;45433;-74
2023/04/08 10:35:35;;;;;;;;;16.67;16.33;;;;;18.95;32.80;101859.94;5037349;28;45510;-74
2023/04/08 10:38:01;;;;;;;;;15.67;15.67;;;;;19.35;33.68;101994.66;5036892;28;45231;-74
2023/04/08 10:40:27;;;;;;;;;17.00;16.00;;;;;17.88;34.42;101856.34;5037283;28;45511;-76
2023/04/08 10:42:58;;;;;;;;;17.33;15.67;;;;;18.14;36.00;101992.66;5037963;28;45495;-74
2023/04/08 10:45:24;;;;;;;;;17.67;14.67;;;;;17.68;36.36;101946.41;5037540;28;46599;-75
2023/04/08 10:47:50;;;;;;;;;20.00;17.00;;;;;17.22;37.59;101956.53;5037910;28;45492;-73
2023/04/08 10:50:22;;;;;;;;;20.00;18.33;;;;;17.32;37.99;101992.19;5019679;28;45490;-74
2023/04/08 10:52:52;;;;;;;;;17.33;17.00;;;;;17.00;38.56;101975.81;5037791;28;45486;-73
2023/04/08 10:55:25;;;;;;;;;15.67;12.67;;;;;16.44;39.25;101936.72;5036925;28;47008;-74
2023/04/08 10:57:51;;;;;;;;;25.33;21.00;;;;;15.95;39.64;101863.78;5038125;28;45524;-74
2023/04/08 11:00:19;;;;;;;;;19.67;16.00;;;;;16.17;39.91;101931.41;5037061;28;45294;-74
2023/04/08 11:02:44;;;;;;;;;14.00;14.00;;;;;16.16;40.27;101978.84;5037253;28;45563;-74
2023/04/08 11:05:10;;;;;;;;;12.67;12.67;;;;;14.86;41.20;101795.78;5044579;28;45530;-74
2023/04/08 11:07:40;;;;;;;;;18.67;17.67;;;;;15.96;40.50;101983.47;5056873;28;45412;-73
2023/04/08 11:10:07;;;;;;;;;18.33;13.67;;;;;15.25;41.30;101902.78;5056041;28;45343;-74
2023/04/08 11:12:32;;;;;;;;;17.33;15.33;;;;;14.75;41.93;101857.50;5039278;28;45428;-73
2023/04/08 11:14:58;;;;;;;;;16.00;14.00;;;;;15.15;41.69;101907.31;5056807;28;46499;-74
2023/04/08 11:17:23;;;;;;;;;17.33;15.33;;;;;14.94;41.45;101845.91;5057031;28;45179;-74